Terminal Aerodrome Forecast
Issued by NWS

Home | Current Version | Previous Version | Text Only | Print | Product List | Glossary On
Versions: 1 2 3 4 5 6 7 8 9 10 11 12
000
FTUS45 KRIW 221100
TAFCPR
TAF
KCPR 221132Z 2212/2312 28011KT P6SM VCSH SCT035 BKN060
     FM221700 29012G20KT P6SM VCSH SCT030 BKN045
     FM222000 29015G25KT P6SM VCSH SCT050 OVC100
     FM230500 30011KT P6SM VCSH SCT025 BKN040=

USA.gov is the U.S. government's official web portal to all federal, state and local government web resources and services.